Time;durP1;ratioP1;P1;durP2;ratioP2;P2;SDS_P1;SDS_P2;PMS_P1;PMS_P2;Temp;Humidity;BMP_temperature;BMP_pressure;BME280_temperature;BME280_humidity;BME280_pressure;Samples;Min_cycle;Max_cycle;Signal;HPM_P1;HPM_P2
2021/05/14 00:01:04;;;;;;;5.80;3.47;;;;;;;37.09;33.68;160960.23;1613434;88;21403;-85
2021/05/14 00:03:36;;;;;;;3.95;3.00;;;;;;;37.15;33.71;160976.33;1622397;87;21251;-85
2021/05/14 00:06:09;;;;;;;3.35;2.92;;;;;;;36.93;33.89;160917.37;1621574;88;21483;-85
2021/05/14 00:08:41;;;;;;;3.10;2.47;;;;;;;36.95;33.95;160922.75;1620997;88;21199;-85
2021/05/14 00:11:14;;;;;;;3.98;2.83;;;;;;;36.75;34.25;160867.84;1623094;88;21198;-85
2021/05/14 00:13:47;;;;;;;5.50;3.10;;;;;;;36.63;34.39;160837.03;1605039;89;21734;-85
2021/05/14 00:16:20;;;;;;;2.98;2.67;;;;;;;36.85;34.19;160894.61;1605313;88;21757;-85
2021/05/14 00:18:52;;;;;;;4.70;3.15;;;;;;;36.88;34.16;160903.97;1618376;87;21406;-85
2021/05/14 00:21:26;;;;;;;5.80;2.90;;;;;;;36.85;34.13;160894.61;1619207;88;21363;-85
2021/05/14 00:23:59;;;;;;;3.05;2.72;;;;;;;37.27;33.83;161008.41;1620088;87;21240;-85
2021/05/14 00:26:31;;;;;;;3.77;2.92;;;;;;;37.41;33.61;161045.97;1636305;87;21350;-85
2021/05/14 00:29:03;;;;;;;4.35;2.80;;;;;;;37.48;33.48;161066.06;1641567;86;21201;-85
2021/05/14 00:31:36;;;;;;;5.00;3.45;;;;;;;37.50;33.41;161071.44;1643672;87;21327;-85
2021/05/14 00:34:08;;;;;;;3.02;2.72;;;;;;;37.42;33.47;161048.66;1645488;87;21248;-85
2021/05/14 00:36:40;;;;;;;3.42;2.85;;;;;;;37.45;33.46;161056.70;1643458;86;21397;-84
2021/05/14 00:39:13;;;;;;;6.10;2.85;;;;;;;37.44;33.48;161054.02;1640023;86;21265;-84
2021/05/14 00:41:46;;;;;;;4.30;3.33;;;;;;;37.45;33.49;161058.02;1643449;87;21839;-85
2021/05/14 00:44:39;;;;;;;4.80;3.02;;;;;;;37.48;33.54;161066.06;1642706;87;21216;-85
2021/05/14 00:47:11;;;;;;;4.62;3.17;;;;;;;37.54;33.48;161082.16;1629288;86;21406;-85
2021/05/14 00:49:44;;;;;;;4.55;2.90;;;;;;;37.47;33.60;161062.06;1642186;87;21272;-85
2021/05/14 00:52:19;;;;;;;3.80;2.50;;;;;;;37.45;33.56;161056.70;1625921;87;21347;-84
2021/05/14 00:54:53;;;;;;;4.37;3.15;;;;;;;37.41;33.48;161047.34;1641640;86;21342;-85
2021/05/14 00:57:26;;;;;;;3.55;3.00;;;;;;;37.43;33.42;161051.34;1644796;86;21208;-84
2021/05/14 00:59:58;;;;;;;3.75;2.87;;;;;;;37.48;33.44;161064.75;1644456;87;21461;-85
2021/05/14 01:02:30;;;;;;;4.58;2.70;;;;;;;37.46;33.37;161059.38;1643722;87;21264;-84
2021/05/14 01:05:03;;;;;;;3.47;3.02;;;;;;;37.37;33.42;161036.61;1645504;87;21355;-85
2021/05/14 01:07:35;;;;;;;4.22;3.12;;;;;;;37.43;33.34;161052.70;1639887;86;21338;-85
2021/05/14 01:10:08;;;;;;;4.28;3.55;;;;;;;37.40;33.36;161043.28;1643889;86;21957;-85
2021/05/14 01:12:40;;;;;;;4.95;3.35;;;;;;;37.41;33.28;161045.97;1629811;87;21381;-85
2021/05/14 01:15:13;;;;;;;6.17;4.00;;;;;;;36.84;33.77;160893.25;1636075;86;21395;-85
2021/05/14 01:17:46;;;;;;;4.47;3.22;;;;;;;36.78;33.90;160875.84;1635428;87;21260;-85
2021/05/14 01:20:19;;;;;;;4.85;3.05;;;;;;;36.77;33.91;160874.52;1613422;86;21345;-86
2021/05/14 01:22:52;;;;;;;6.00;3.62;;;;;;;36.74;33.94;160865.16;1616002;88;21210;-85
2021/05/14 01:25:24;;;;;;;3.72;3.02;;;;;;;36.69;33.95;160851.75;1629473;88;21247;-85
2021/05/14 01:27:57;;;;;;;4.95;3.10;;;;;;;36.78;33.83;160877.20;1605150;88;21889;-85
2021/05/14 01:30:30;;;;;;;8.58;3.55;;;;;;;36.72;33.96;160859.80;1613548;88;21944;-86
2021/05/14 01:33:02;;;;;;;5.65;3.65;;;;;;;36.80;33.86;160881.20;1605119;88;21404;-85
2021/05/14 01:35:34;;;;;;;6.12;3.33;;;;;;;36.81;33.83;160883.89;1624047;88;21928;-85
2021/05/14 01:38:07;;;;;;;4.30;3.02;;;;;;;36.46;34.17;160791.50;1630966;88;21360;-84
2021/05/14 01:40:41;;;;;;;5.12;3.25;;;;;;;36.79;33.89;160878.52;1627090;88;21388;-85
2021/05/14 01:43:13;;;;;;;5.33;3.67;;;;;;;36.39;34.26;160771.44;1624552;87;21392;-85
2021/05/14 01:45:45;;;;;;;5.78;3.80;;;;;;;36.72;33.98;160861.12;1625989;88;21392;-86
2021/05/14 01:48:18;;;;;;;4.85;3.30;;;;;;;36.91;33.75;160910.70;1626745;87;21785;-85
2021/05/14 01:50:50;;;;;;;6.87;3.47;;;;;;;36.93;33.64;160917.37;1621204;88;21314;-85
2021/05/14 01:53:22;;;;;;;8.90;4.58;;;;;;;36.90;33.68;160909.39;1609038;88;21399;-85
2021/05/14 01:55:56;;;;;;;5.25;3.72;;;;;;;36.93;33.61;160916.06;1610167;86;21448;-85
2021/05/14 01:58:28;;;;;;;6.87;3.77;;;;;;;36.94;33.61;160918.75;1614332;88;21460;-86
2021/05/14 02:01:01;;;;;;;6.90;4.37;;;;;;;36.93;33.56;160917.37;1630019;88;21349;-85
2021/05/14 02:03:33;;;;;;;5.97;3.55;;;;;;;36.89;33.53;160906.66;1604937;88;21952;-86
2021/05/14 02:06:06;;;;;;;7.80;4.75;;;;;;;36.90;33.52;160908.02;1604939;88;21376;-86
2021/05/14 02:08:38;;;;;;;10.68;4.50;;;;;;;36.92;33.51;160913.37;1613652;88;21242;-85
2021/05/14 02:11:11;;;;;;;7.08;4.67;;;;;;;36.93;33.46;160916.06;1613989;87;21721;-85
2021/05/14 02:13:43;;;;;;;9.75;5.58;;;;;;;36.89;33.52;160906.66;1629700;88;21215;-86
2021/05/14 02:16:16;;;;;;;7.95;3.90;;;;;;;36.87;33.50;160899.92;1625045;88;21836;-85
2021/05/14 02:18:49;;;;;;;9.88;3.60;;;;;;;36.88;33.47;160902.59;1605043;89;21762;-85
2021/05/14 02:21:22;;;;;;;8.08;5.05;;;;;;;36.89;33.46;160905.28;1607055;88;21252;-85
2021/05/14 02:23:54;;;;;;;5.90;4.40;;;;;;;36.78;33.50;160877.20;1642047;86;21190;-85
2021/05/14 02:26:27;;;;;;;6.62;3.67;;;;;;;36.78;33.53;160875.84;1645894;86;21274;-86
2021/05/14 02:28:59;;;;;;;7.70;4.42;;;;;;;36.75;33.50;160869.16;1658574;85;21277;-86
2021/05/14 02:31:31;;;;;;;5.95;4.95;;;;;;;36.77;33.50;160874.52;1658976;85;21230;-86
2021/05/14 02:34:04;;;;;;;6.08;4.28;;;;;;;36.75;33.52;160869.16;1659035;86;21261;-85
2021/05/14 02:36:36;;;;;;;8.68;4.80;;;;;;;36.73;33.48;160862.48;1652626;86;21248;-85
2021/05/14 02:39:09;;;;;;;7.08;4.90;;;;;;;36.80;33.45;160882.56;1651421;86;21261;-85
2021/05/14 02:41:41;;;;;;;5.95;4.78;;;;;;;36.83;33.40;160890.56;1647654;86;21423;-86
2021/05/14 02:44:13;;;;;;;7.30;4.58;;;;;;;36.80;33.38;160882.56;1645627;86;21249;-86
2021/05/14 02:46:47;;;;;;;7.22;4.65;;;;;;;36.74;33.42;160865.16;1658939;86;21603;-86
2021/05/14 02:49:20;;;;;;;8.80;4.90;;;;;;;36.74;33.29;160866.48;1659112;86;21297;-86
2021/05/14 02:51:52;;;;;;;7.08;4.22;;;;;;;36.77;33.16;160874.52;1659168;86;21293;-85
2021/05/14 02:54:24;;;;;;;5.30;3.98;;;;;;;36.74;33.08;160865.16;1659469;85;21751;-86
2021/05/14 02:56:57;;;;;;;6.92;4.47;;;;;;;36.73;33.09;160862.48;1659048;86;21753;-85
2021/05/14 02:59:29;;;;;;;7.45;4.85;;;;;;;36.75;33.07;160869.16;1646625;86;21201;-85
2021/05/14 03:02:01;;;;;;;6.85;4.25;;;;;;;36.77;33.07;160874.52;1659041;86;21214;-85
2021/05/14 03:04:36;;;;;;;5.03;4.15;;;;;;;36.76;33.07;160871.84;1644393;86;21411;-86
2021/05/14 03:07:10;;;;;;;6.72;4.05;;;;;;;36.78;33.08;160877.20;1644587;86;21280;-83
2021/05/14 03:09:43;;;;;;;6.50;4.10;;;;;;;36.80;33.09;160882.56;1656634;85;21253;-83
2021/05/14 03:12:15;;;;;;;7.97;4.78;;;;;;;36.95;32.98;160922.75;1646618;86;21907;-83
2021/05/14 03:14:48;;;;;;;12.53;4.70;;;;;;;36.87;33.10;160901.28;1634182;85;21290;-83
2021/05/14 03:17:20;;;;;;;8.05;4.72;;;;;;;36.84;33.09;160893.25;1659267;86;21289;-85
2021/05/14 03:19:53;;;;;;;7.67;5.20;;;;;;;36.74;33.21;160866.48;1645990;86;21354;-81
2021/05/14 03:22:25;;;;;;;9.00;4.62;;;;;;;36.77;33.20;160873.16;1643167;86;21406;-85
2021/05/14 03:24:57;;;;;;;11.60;4.60;;;;;;;36.78;33.19;160875.84;1644653;86;21410;-85
2021/05/14 03:27:30;;;;;;;6.03;4.67;;;;;;;36.78;33.20;160877.20;1644311;86;21362;-83
2021/05/14 03:30:03;;;;;;;5.92;4.65;;;;;;;36.79;33.18;160879.87;1644144;86;21398;-86
2021/05/14 03:32:36;;;;;;;11.73;4.30;;;;;;;36.50;33.43;160802.23;1643869;86;21410;-84
2021/05/14 03:35:09;;;;;;;6.55;4.40;;;;;;;36.67;33.33;160847.75;1645517;86;21387;-87
2021/05/14 03:37:44;;;;;;;7.80;4.75;;;;;;;36.71;33.32;160857.13;1644146;84;21414;-85
2021/05/14 03:40:21;;;;;;;7.67;5.00;;;;;;;36.73;33.32;160862.48;1644337;86;21446;-82
2021/05/14 03:42:53;;;;;;;8.03;4.53;;;;;;;36.73;33.32;160863.80;1645318;86;21346;-83
2021/05/14 03:45:27;;;;;;;5.87;4.10;;;;;;;36.73;33.32;160862.48;1645319;86;21889;-84
2021/05/14 03:48:17;;;;;;;6.58;4.58;;;;;;;36.72;33.37;160861.12;1646189;86;21693;-84
2021/05/14 03:50:38;;;;;;;7.55;4.28;;;;;;;36.76;33.37;160870.47;1644699;86;21429;-82
2021/05/14 03:53:11;;;;;;;5.75;4.67;;;;;;;36.81;33.35;160883.89;1593742;88;21237;-85
2021/05/14 03:55:43;;;;;;;6.65;4.20;;;;;;;36.59;33.69;160826.31;1607648;88;21317;-86
2021/05/14 03:58:15;;;;;;;5.28;3.87;;;;;;;36.50;33.93;160802.23;1610898;87;21400;-86
2021/05/14 04:00:49;;;;;;;5.67;4.40;;;;;;;36.76;33.75;160870.47;1598948;87;21297;-89
2021/05/14 04:03:22;;;;;;;8.05;4.30;;;;;;;36.85;33.64;160895.92;1596945;88;21360;-86
2021/05/14 04:05:54;;;;;;;6.72;3.98;;;;;;;36.89;33.58;160905.28;1597734;88;21261;-85
2021/05/14 04:08:27;;;;;;;7.08;4.20;;;;;;;36.93;33.60;160917.37;1598286;88;21345;-84
2021/05/14 04:11:19;;;;;;;9.68;4.20;;;;;;;36.60;33.94;160829.00;1600025;87;21968;-83
2021/05/14 04:16:28;;;;;;;6.37;3.90;;;;;;;36.97;33.64;160926.80;1597257;90;21281;-84
2021/05/14 04:19:02;;;;;;;7.72;4.60;;;;;;;36.99;33.62;160933.47;1615639;88;21230;-85
2021/05/14 04:21:34;;;;;;;8.40;4.67;;;;;;;36.94;33.64;160920.06;1596709;88;21221;-86
2021/05/14 04:24:07;;;;;;;7.95;4.87;;;;;;;36.95;33.67;160922.75;1571738;90;21333;-86
2021/05/14 04:26:39;;;;;;;7.33;4.35;;;;;;;37.00;33.69;160934.78;1627458;88;21214;-86
2021/05/14 04:29:12;;;;;;;7.25;5.12;;;;;;;37.00;33.70;160936.16;1602899;88;21257;-86
2021/05/14 04:31:46;;;;;;;6.70;4.35;;;;;;;37.03;33.68;160942.83;1659672;85;21289;-85
2021/05/14 04:34:20;;;;;;;6.28;4.55;;;;;;;36.99;33.76;160932.09;1659945;86;21182;-85
2021/05/14 04:36:54;;;;;;;7.28;4.20;;;;;;;37.04;33.67;160946.83;1622230;86;21392;-85
2021/05/14 04:39:27;;;;;;;6.60;4.47;;;;;;;37.03;33.58;160945.52;1657847;85;21265;-85
2021/05/14 04:41:59;;;;;;;5.95;3.87;;;;;;;37.03;33.55;160945.52;1659928;86;21257;-84
2021/05/14 04:44:32;;;;;;;5.62;3.83;;;;;;;37.06;33.47;160953.56;1659645;86;21741;-85
2021/05/14 04:47:05;;;;;;;5.75;4.20;;;;;;;37.11;33.36;160965.59;1652673;86;21217;-86
2021/05/14 04:49:38;;;;;;;6.95;3.87;;;;;;;37.11;33.36;160966.91;1648251;86;21388;-87
2021/05/14 04:52:22;;;;;;;4.30;3.37;;;;;;;37.18;33.32;160984.33;1649642;85;21822;-87
2021/05/14 04:54:55;;;;;;;5.30;3.67;;;;;;;37.15;33.30;160977.64;1659942;85;21288;-88
2021/05/14 04:57:27;;;;;;;7.53;3.60;;;;;;;37.16;33.22;160980.33;1660001;86;21244;-88
2021/05/14 05:00:00;;;;;;;5.00;3.35;;;;;;;37.22;33.15;160996.38;1660033;85;21190;-87
2021/05/14 05:02:32;;;;;;;7.92;3.80;;;;;;;37.20;33.10;160989.69;1660105;86;21209;-86
2021/05/14 05:05:05;;;;;;;5.90;3.70;;;;;;;37.22;32.97;160996.38;1660074;85;21252;-88
2021/05/14 05:07:38;;;;;;;6.08;3.72;;;;;;;37.19;32.93;160988.37;1657748;85;21297;-90
2021/05/14 05:10:11;;;;;;;7.95;4.42;;;;;;;37.25;32.86;161003.09;1660543;85;21241;-91
2021/05/14 05:12:43;;;;;;;4.80;3.45;;;;;;;37.26;32.82;161007.09;1659894;86;21292;-88
2021/05/14 05:15:17;;;;;;;10.00;4.20;;;;;;;37.25;32.86;161004.41;1659654;86;22383;-89
2021/05/14 05:17:49;;;;;;;5.37;4.10;;;;;;;37.14;32.95;160974.97;1618621;86;21260;-89
2021/05/14 05:20:22;;;;;;;7.40;3.90;;;;;;;37.15;32.98;160977.64;1642067;86;21848;-91
2021/05/14 05:22:55;;;;;;;6.15;3.72;;;;;;;37.20;33.09;160991.06;1628744;86;21306;-93
2021/05/14 05:25:28;;;;;;;8.20;4.10;;;;;;;37.26;33.16;161005.78;1630328;86;21620;-92
2021/05/14 05:28:03;;;;;;;5.55;3.90;;;;;;;37.31;33.28;161020.52;1633035;86;21379;-90
2021/05/14 05:30:35;;;;;;;7.08;3.70;;;;;;;37.33;33.31;161024.50;1592929;88;21230;-93
2021/05/14 05:33:08;;;;;;;5.15;3.47;;;;;;;37.39;33.43;161040.59;1607643;88;21403;-94
2021/05/14 05:35:41;;;;;;;5.10;3.52;;;;;;;37.46;33.46;161059.38;1611870;87;21416;-92
2021/05/14 05:38:23;;;;;;;4.85;3.22;;;;;;;37.47;33.48;161062.06;1597462;88;21222;-90
2021/05/14 05:40:56;;;;;;;4.55;3.15;;;;;;;37.53;33.44;161079.48;1597222;88;21317;-90
2021/05/14 05:43:29;;;;;;;5.22;3.37;;;;;;;37.63;33.32;161104.89;1599212;88;21772;-91
2021/05/14 05:46:01;;;;;;;6.42;3.75;;;;;;;37.68;33.29;161119.63;1596581;88;21415;-91
2021/05/14 05:48:34;;;;;;;5.92;3.40;;;;;;;37.78;33.22;161146.45;1597763;88;21223;-90
2021/05/14 05:51:09;;;;;;;5.22;3.50;;;;;;;37.84;33.09;161162.55;1596931;88;22038;-89
2021/05/14 05:53:48;;;;;;;9.70;3.67;;;;;;;37.88;33.02;161173.28;1598121;88;21266;-87
2021/05/14 05:56:24;;;;;;;6.75;2.98;;;;;;;37.95;32.92;161190.70;1599991;88;21424;-89
2021/05/14 05:58:58;;;;;;;7.15;3.40;;;;;;;37.95;33.04;161190.70;1600334;88;21428;-86
2021/05/14 06:01:33;;;;;;;7.70;2.90;;;;;;;37.93;33.13;161185.34;1600961;88;21278;-86
2021/05/14 06:04:06;;;;;;;6.37;3.45;;;;;;;37.97;33.33;161197.39;1596828;88;21415;-85
2021/05/14 06:06:38;;;;;;;5.80;3.30;;;;;;;38.07;33.31;161224.17;1596270;88;21257;-86
2021/05/14 06:09:11;;;;;;;6.45;3.85;;;;;;;38.08;33.40;161228.17;1596830;88;21448;-87
2021/05/14 06:11:46;;;;;;;5.28;3.33;;;;;;;38.21;33.24;161261.69;1596557;88;21746;-89
2021/05/14 06:14:19;;;;;;;5.50;3.50;;;;;;;38.34;33.12;161296.59;1597932;88;21364;-92
2021/05/14 06:16:52;;;;;;;6.92;3.85;;;;;;;38.41;33.02;161316.70;1597029;88;21404;-92
2021/05/14 06:19:33;;;;;;;4.60;3.17;;;;;;;38.39;32.98;161311.33;1596890;88;21846;-94
2021/05/14 06:21:58;;;;;;;3.92;3.33;;;;;;;38.48;32.90;161334.13;1596604;88;21827;-91
2021/05/14 06:24:32;;;;;;;6.30;3.27;;;;;;;38.56;32.96;161356.86;1598197;88;21900;-93
2021/05/14 06:27:06;;;;;;;5.67;3.50;;;;;;;38.58;32.95;161360.91;1595826;88;21288;-92
2021/05/14 06:29:42;;;;;;;5.70;3.42;;;;;;;38.39;33.13;161311.33;1602574;88;21403;-91
2021/05/14 06:32:15;;;;;;;5.03;3.60;;;;;;;38.43;33.20;161322.02;1631584;86;21301;-89
2021/05/14 06:34:48;;;;;;;6.28;3.05;;;;;;;38.49;33.15;161338.13;1630293;86;21428;-89
2021/05/14 06:37:21;;;;;;;4.60;3.15;;;;;;;38.52;32.99;161346.17;1630830;86;21452;-86
2021/05/14 06:39:54;;;;;;;6.90;3.20;;;;;;;38.55;32.88;161354.19;1629595;86;21458;-83
2021/05/14 06:42:27;;;;;;;4.95;3.22;;;;;;;38.59;32.81;161363.59;1630182;86;21484;-88
2021/05/14 06:44:59;;;;;;;5.80;3.37;;;;;;;38.69;32.77;161391.77;1630584;86;21408;-86
2021/05/14 06:47:32;;;;;;;6.37;3.50;;;;;;;38.68;32.82;161387.77;1629774;86;21459;-88
2021/05/14 06:50:08;;;;;;;4.70;3.47;;;;;;;38.71;32.80;161397.13;1629564;86;21202;-85
2021/05/14 06:52:41;;;;;;;6.40;3.80;;;;;;;38.77;32.65;161413.25;1628719;86;21931;-85
2021/05/14 06:55:14;;;;;;;6.53;4.05;;;;;;;38.91;32.55;161450.73;1630279;86;21341;-87
2021/05/14 06:57:47;;;;;;;8.70;3.90;;;;;;;38.93;32.64;161454.78;1630248;86;21423;-85
2021/05/14 07:00:21;;;;;;;5.10;3.47;;;;;;;38.95;32.67;161462.78;1630463;86;22364;-84
2021/05/14 07:02:54;;;;;;;4.17;3.15;;;;;;;39.00;32.62;161474.91;1630392;86;21258;-85
2021/05/14 07:05:26;;;;;;;4.97;3.30;;;;;;;39.05;32.61;161488.28;1630868;86;21222;-86
2021/05/14 07:07:59;;;;;;;4.28;3.12;;;;;;;39.02;32.68;161480.22;1630335;86;22200;-87
2021/05/14 07:10:31;;;;;;;6.22;3.55;;;;;;;39.03;32.62;161482.91;1630024;86;21392;-89
2021/05/14 07:13:04;;;;;;;4.70;2.98;;;;;;;39.17;32.49;161520.50;1629716;86;21388;-88
2021/05/14 07:15:37;;;;;;;3.75;3.00;;;;;;;39.14;32.50;161513.81;1632667;86;21361;-85
2021/05/14 07:18:11;;;;;;;4.67;3.27;;;;;;;39.11;32.52;161505.77;1631420;86;21349;-86
2021/05/14 07:20:43;;;;;;;6.78;3.50;;;;;;;39.17;32.53;161520.50;1630505;86;21464;-85
2021/05/14 07:23:16;;;;;;;4.55;3.40;;;;;;;39.16;32.47;161519.19;1632425;86;21348;-89
2021/05/14 07:25:49;;;;;;;5.35;3.67;;;;;;;39.19;32.50;161525.88;1630552;86;21982;-86
2021/05/14 07:28:22;;;;;;;6.75;3.50;;;;;;;39.25;32.50;161543.31;1631345;86;21275;-89
2021/05/14 07:30:54;;;;;;;5.15;3.60;;;;;;;39.29;32.44;161552.69;1634401;86;21380;-88
2021/05/14 07:33:30;;;;;;;4.80;3.40;;;;;;;39.32;32.42;161560.75;1593190;88;21776;-84
2021/05/14 07:36:05;;;;;;;5.85;3.87;;;;;;;39.38;32.34;161578.17;1605607;88;21419;-87
2021/05/14 07:38:38;;;;;;;5.20;3.40;;;;;;;39.43;32.37;161591.55;1611779;87;21393;-86
2021/05/14 07:41:11;;;;;;;6.97;2.85;;;;;;;39.50;32.34;161610.41;1597441;88;21420;-87
2021/05/14 07:43:45;;;;;;;5.12;3.08;;;;;;;39.57;32.35;161627.84;1599186;88;21227;-87
2021/05/14 07:46:18;;;;;;;3.80;2.47;;;;;;;39.56;32.40;161625.16;1593499;88;21241;-87
2021/05/14 07:48:50;;;;;;;5.37;3.20;;;;;;;39.57;32.31;161629.16;1607447;88;21416;-88
2021/05/14 07:51:23;;;;;;;4.65;3.15;;;;;;;39.60;32.26;161635.84;1611348;87;21933;-89
2021/05/14 07:53:57;;;;;;;3.35;2.85;;;;;;;39.60;32.17;161637.22;1609819;87;21275;-83
2021/05/14 07:56:29;;;;;;;3.80;2.83;;;;;;;39.65;32.04;161650.59;1596548;88;21408;-85
2021/05/14 07:59:02;;;;;;;6.92;3.33;;;;;;;39.71;31.98;161665.34;1596704;88;21357;-85
2021/05/14 08:01:36;;;;;;;5.75;3.60;;;;;;;39.78;31.95;161685.47;1596181;88;21500;-85
2021/05/14 08:04:09;;;;;;;5.15;3.08;;;;;;;39.85;31.98;161704.28;1595770;88;21266;-84
2021/05/14 08:06:42;;;;;;;4.87;3.10;;;;;;;39.92;31.93;161721.72;1596734;88;21327;-84
2021/05/14 08:09:21;;;;;;;6.33;2.80;;;;;;;39.95;31.89;161732.47;1597105;88;21420;-86
2021/05/14 08:11:54;;;;;;;13.50;3.17;;;;;;;39.98;31.79;161739.22;1598324;88;21218;-84
2021/05/14 08:14:27;;;;;;;3.95;2.85;;;;;;;40.04;31.66;161756.66;1596464;88;21253;-84
2021/05/14 08:17:01;;;;;;;4.70;2.77;;;;;;;40.03;31.69;161752.59;1596117;88;21462;-82
2021/05/14 08:19:34;;;;;;;3.55;2.70;;;;;;;40.06;31.60;161761.98;1596795;88;21903;-85
2021/05/14 08:22:07;;;;;;;7.75;2.95;;;;;;;40.06;31.51;161761.98;1598024;88;21408;-84
2021/05/14 08:24:40;;;;;;;5.33;2.87;;;;;;;40.06;31.46;161760.66;1599125;88;21416;-85
2021/05/14 08:27:13;;;;;;;6.12;3.10;;;;;;;40.12;31.34;161776.73;1597159;88;21259;-84
2021/05/14 08:29:45;;;;;;;4.30;2.62;;;;;;;40.12;31.33;161778.09;1595413;88;21864;-85
2021/05/14 08:32:18;;;;;;;6.97;2.87;;;;;;;40.11;31.34;161775.41;1595484;88;21761;-87
2021/05/14 08:34:51;;;;;;;5.15;2.62;;;;;;;40.13;31.30;161779.42;1604576;88;21356;-86
2021/05/14 08:37:23;;;;;;;4.78;2.98;;;;;;;40.17;31.24;161791.48;1629388;86;21420;-85
2021/05/14 08:39:56;;;;;;;5.60;3.00;;;;;;;40.19;31.28;161795.55;1629938;86;21931;-85
2021/05/14 08:42:30;;;;;;;3.50;2.90;;;;;;;40.18;31.24;161792.86;1630219;86;21666;-83
2021/05/14 08:45:02;;;;;;;5.05;3.05;;;;;;;40.19;31.31;161796.86;1629432;86;21183;-81
2021/05/14 08:47:36;;;;;;;4.20;2.75;;;;;;;40.20;31.34;161799.55;1629713;86;21252;-83
2021/05/14 08:50:11;;;;;;;4.85;2.87;;;;;;;40.26;31.33;161814.31;1631532;86;21650;-83
2021/05/14 08:52:45;;;;;;;3.52;2.87;;;;;;;40.21;31.53;161802.23;1630086;86;21415;-83
2021/05/14 08:55:22;;;;;;;5.75;3.70;;;;;;;40.22;31.63;161804.92;1631922;86;21276;-84
2021/05/14 08:57:53;;;;;;;6.47;3.35;;;;;;;40.29;31.55;161823.69;1630675;86;21412;-82
2021/05/14 09:00:27;;;;;;;4.03;2.83;;;;;;;40.26;31.60;161815.67;1630550;86;21407;-83
2021/05/14 09:03:01;;;;;;;5.85;2.72;;;;;;;40.26;31.52;161815.67;1631384;86;21285;-84
2021/05/14 09:05:34;;;;;;;5.62;2.62;;;;;;;40.31;31.55;161829.06;1631996;86;21384;-83
2021/05/14 09:08:08;;;;;;;5.53;2.80;;;;;;;40.28;31.37;161819.69;1631537;86;21265;-83
2021/05/14 09:10:41;;;;;;;3.60;2.58;;;;;;;40.31;31.23;161827.75;1631484;86;21757;-83
2021/05/14 09:13:16;;;;;;;4.58;2.83;;;;;;;40.29;31.13;161822.37;1630876;86;21415;-83
2021/05/14 09:15:48;;;;;;;3.92;2.35;;;;;;;40.26;31.10;161815.67;1632120;86;21674;-85
2021/05/14 09:18:25;;;;;;;4.75;2.90;;;;;;;40.35;31.03;161838.50;1631935;86;21368;-82
2021/05/14 09:20:59;;;;;;;5.95;2.40;;;;;;;40.36;30.99;161841.19;1630016;86;21195;-80
2021/05/14 09:23:36;;;;;;;7.30;3.02;;;;;;;40.41;30.81;161855.94;1629966;86;21346;-82
2021/05/14 09:26:15;;;;;;;2.50;1.87;;;;;;;40.41;30.74;161855.94;1631057;86;21923;-83
2021/05/14 09:28:50;;;;;;;7.53;2.40;;;;;;;40.48;30.58;161874.75;1629899;86;21387;-85
2021/05/14 09:31:25;;;;;;;4.80;2.60;;;;;;;40.52;30.48;161885.45;1634248;87;21272;-83
2021/05/14 09:34:00;;;;;;;3.77;2.00;;;;;;;40.53;30.22;161886.83;1649063;86;21270;-84
2021/05/14 09:36:36;;;;;;;2.30;1.87;;;;;;;40.72;29.70;161939.16;1649183;87;21214;-84
2021/05/14 09:39:09;;;;;;;4.15;2.30;;;;;;;40.78;29.33;161955.30;1648707;86;21261;-83
2021/05/14 09:41:45;;;;;;;2.60;1.95;;;;;;;40.80;29.09;161960.67;1649155;85;21687;-83
2021/05/14 09:44:20;;;;;;;2.87;1.67;;;;;;;40.70;28.99;161933.78;1649111;86;21759;-83
2021/05/14 09:46:58;;;;;;;1.98;1.75;;;;;;;40.67;28.78;161924.41;1649093;87;21238;-83
2021/05/14 09:49:33;;;;;;;3.05;1.70;;;;;;;40.57;28.77;161898.91;1649158;86;21278;-83
2021/05/14 09:52:06;;;;;;;6.60;2.10;;;;;;;40.56;28.87;161896.20;1649116;87;21625;-82
2021/05/14 09:54:43;;;;;;;2.85;2.10;;;;;;;40.51;29.04;161881.44;1649195;86;21392;-81
2021/05/14 10:00:09;;;;;;;5.58;2.37;;;;;;;40.53;29.53;161886.83;1649695;85;21365;-83
2021/05/14 10:02:42;;;;;;;9.05;2.30;;;;;;;40.49;29.88;161877.44;1649966;85;21275;-83
2021/05/14 10:05:15;;;;;;;4.22;2.52;;;;;;;40.47;30.14;161870.69;1649430;85;21960;-83
2021/05/14 10:07:48;;;;;;;3.30;2.30;;;;;;;40.51;30.35;161882.77;1649507;87;21230;-83
2021/05/14 10:10:21;;;;;;;6.22;2.15;;;;;;;40.42;30.56;161858.63;1649484;87;21448;-82
2021/05/14 10:12:53;;;;;;;4.12;2.37;;;;;;;40.44;30.60;161862.69;1649403;86;21337;-83
2021/05/14 10:15:26;;;;;;;4.67;2.20;;;;;;;40.47;30.60;161870.69;1649715;86;21389;-83
2021/05/14 10:17:59;;;;;;;3.72;2.15;;;;;;;40.40;30.69;161853.25;1649524;85;21215;-83
2021/05/14 10:20:32;;;;;;;4.75;2.35;;;;;;;40.38;30.77;161847.92;1636459;87;21887;-82
2021/05/14 10:23:06;;;;;;;4.50;2.17;;;;;;;40.35;30.78;161838.50;1632442;88;21435;-83
2021/05/14 10:25:50;;;;;;;3.67;2.25;;;;;;;40.28;30.92;161819.69;1592315;89;21329;-83
2021/05/14 10:28:24;;;;;;;5.85;2.40;;;;;;;40.26;31.01;161814.31;1620006;88;21729;-83
2021/05/14 10:31:08;;;;;;;3.40;2.20;;;;;;;40.35;30.98;161839.86;1616051;88;21906;-83
2021/05/14 10:33:47;;;;;;;4.90;1.90;;;;;;;40.30;31.05;161826.38;1659408;85;21186;-83
2021/05/14 10:36:31;;;;;;;3.02;2.02;;;;;;;40.36;31.03;161842.55;1659412;85;21400;-84
2021/05/14 10:39:11;;;;;;;4.08;2.20;;;;;;;40.34;31.04;161837.17;1612590;89;21354;-84
2021/05/14 10:42:08;;;;;;;3.67;2.00;;;;;;;40.37;30.98;161843.88;1611762;89;21846;-83
2021/05/14 10:44:44;;;;;;;3.62;2.20;;;;;;;40.38;31.03;161847.92;1611744;89;21395;-83
2021/05/14 10:47:28;;;;;;;5.15;2.33;;;;;;;40.45;31.04;161865.38;1611580;88;21351;-83
2021/05/14 10:50:07;;;;;;;4.92;2.50;;;;;;;40.53;31.26;161886.83;1611791;89;21205;-83
2021/05/14 10:53:19;;;;;;;2.42;2.10;;;;;;;40.50;31.20;161880.13;1611691;89;21920;-83
2021/05/14 10:55:53;;;;;;;3.45;2.15;;;;;;;40.71;30.88;161935.11;1611806;89;21205;-84
2021/05/14 10:58:48;;;;;;;4.75;2.33;;;;;;;40.83;30.90;161967.37;1611732;89;21922;-84
2021/05/14 11:01:40;;;;;;;6.78;2.67;;;;;;;40.87;30.91;161978.13;1611872;89;21232;-83
2021/05/14 11:04:27;;;;;;;4.03;2.70;;;;;;;41.02;30.69;162021.09;1611610;89;21234;-84
2021/05/14 11:06:59;;;;;;;3.90;2.27;;;;;;;41.08;30.67;162035.86;1611789;89;21241;-84
2021/05/14 11:09:33;;;;;;;3.90;2.42;;;;;;;41.16;30.50;162057.38;1611813;88;21339;-84
2021/05/14 11:12:06;;;;;;;3.42;2.40;;;;;;;41.25;30.00;162082.89;1611836;89;21347;-84
2021/05/14 11:14:57;;;;;;;5.67;2.37;;;;;;;41.33;29.83;162102.98;1611671;89;21218;-89
2021/05/14 11:17:23;;;;;;;4.08;2.52;;;;;;;41.36;29.92;162111.05;1591622;89;21825;-87
2021/05/14 11:19:55;;;;;;;6.55;2.40;;;;;;;41.44;29.87;162133.88;1580663;89;21412;-86
2021/05/14 11:22:30;;;;;;;4.97;2.58;;;;;;;41.53;29.61;162156.72;1621060;87;21453;-87
2021/05/14 11:25:14;;;;;;;4.00;2.83;;;;;;;41.56;29.67;162166.16;1611918;87;21226;-86
2021/05/14 11:27:51;;;;;;;3.83;2.45;;;;;;;41.61;29.69;162178.23;1618399;87;21213;-87
2021/05/14 11:30:21;;;;;;;4.72;2.72;;;;;;;41.73;29.75;162210.47;1625190;87;21350;-85
2021/05/14 11:32:54;;;;;;;5.12;2.45;;;;;;;41.83;29.60;162237.31;1578023;89;21797;-88
2021/05/14 11:35:28;;;;;;;5.45;2.52;;;;;;;41.89;29.76;162256.16;1575171;90;21229;-85
2021/05/14 11:38:01;;;;;;;10.25;3.40;;;;;;;42.01;29.46;162288.44;1593021;88;21541;-86
2021/05/14 11:40:43;;;;;;;4.20;2.33;;;;;;;42.04;29.50;162296.44;1592601;88;21267;-85
2021/05/14 11:43:15;;;;;;;3.77;2.33;;;;;;;42.05;29.52;162299.14;1582716;89;21729;-86
2021/05/14 11:45:49;;;;;;;2.95;2.08;;;;;;;42.09;29.49;162309.91;1582387;89;21471;-85
2021/05/14 11:48:22;;;;;;;4.05;2.40;;;;;;;42.17;29.44;162330.06;1582150;89;21233;-86
2021/05/14 11:50:58;;;;;;;2.95;2.30;;;;;;;42.24;29.22;162350.20;1582142;89;21245;-85
2021/05/14 11:53:31;;;;;;;2.55;1.90;;;;;;;42.25;28.92;162352.84;1581402;89;21390;-89
2021/05/14 11:56:05;;;;;;;2.80;1.92;;;;;;;42.28;28.81;162360.92;1579667;89;21402;-88
2021/05/14 11:58:39;;;;;;;3.12;1.80;;;;;;;42.26;28.73;162354.22;1588946;89;21246;-89
2021/05/14 12:01:11;;;;;;;2.37;1.77;;;;;;;42.23;28.75;162347.52;1587698;89;21357;-88